Pagrindinis puslapis
METAR-TAF:

METAR-TAF

Oro uostai :

Madera Municipal Airport

Madera, Kalifornija, Jungtinės Amerikos Valstijos

platuma: 36-59-12N, ilguma: 120-06-39W, Aukštis: 77 m

Dabartinis oras

Ataskaita buvo paskelbta 1 valandą ir 1 minutes, ne 21:53 UTC
Vėjas 3 kt nuo kintamojo kryptimis
Temperatūra 15°C
Drėgmė 55%
Slėgis 1017 hPa
Matomumas: 11.3 km
Giedras dangus

METAR: KMAE 252153Z AUTO VRB03KT 7SM CLR 15/06 A3002 RMK AO2 SLP165 T01500061

Laikas: 14:54 (22:54 UTC)


TAF: trūkstamas

Orai ataskaitas ir orų prognozės (METAR, TAF).

turimą stotys yra geltonos ir raudonos taškus žemėlapyje.

Perkelti pele per norėdami pamatyti stoties vardą.

Tada spustelėkite, norėdami matyti oro stebėjimo ir prognozės.

Norėdami pakeisti žemėlapį: spustelėkite ant žalios mygtukų su juodo kryžiaus žemyn,; žalią mygtuką su brūkšneliu, jei norite nutolinti; arba žalių rodyklių gretimoms žemėlapius.


METAR-TAF: